createdAt,value
2022-08-27T00:02:08.550Z,2.20
2022-08-27T00:04:37.596Z,2.00
2022-08-27T00:07:06.245Z,1.90
2022-08-27T00:09:34.768Z,1.80
2022-08-27T00:12:02.609Z,2.00
2022-08-27T00:14:30.441Z,1.90
2022-08-27T00:16:58.155Z,1.90
2022-08-27T00:19:26.020Z,1.80
2022-08-27T00:21:53.893Z,2.10
2022-08-27T00:24:21.602Z,1.90
2022-08-27T00:26:50.620Z,2.00
2022-08-27T00:29:18.213Z,2.00
2022-08-27T00:31:46.345Z,2.10
2022-08-27T00:34:21.597Z,1.90
2022-08-27T00:36:51.361Z,2.00
2022-08-27T00:39:20.470Z,1.90
2022-08-27T00:41:48.650Z,1.70
2022-08-27T00:44:16.294Z,1.70
2022-08-27T00:46:53.264Z,1.80
2022-08-27T00:49:32.633Z,1.90
2022-08-27T00:52:17.524Z,1.60
2022-08-27T00:54:45.976Z,1.50
2022-08-27T00:57:15.099Z,1.70
2022-08-27T00:59:44.429Z,1.70
2022-08-27T01:02:21.519Z,1.50
2022-08-27T01:05:08.380Z,1.50
2022-08-27T01:07:41.231Z,1.70
2022-08-27T01:10:15.856Z,1.70
2022-08-27T01:12:43.884Z,1.60
2022-08-27T01:15:19.814Z,1.70
2022-08-27T01:17:49.079Z,1.80
2022-08-27T01:20:28.033Z,1.60
2022-08-27T01:23:35.648Z,1.70
2022-08-27T01:26:06.211Z,2.10
2022-08-27T01:28:37.717Z,1.70
2022-08-27T01:31:08.461Z,1.70
2022-08-27T01:33:37.005Z,2.00
2022-08-27T01:36:06.519Z,2.30
2022-08-27T01:38:34.508Z,1.70
2022-08-27T01:41:04.532Z,1.70
2022-08-27T01:43:32.065Z,1.70
2022-08-27T01:45:59.841Z,1.80
2022-08-27T01:48:27.464Z,1.70
2022-08-27T01:50:55.088Z,1.50
2022-08-27T01:53:25.796Z,1.70
2022-08-27T01:55:55.419Z,1.50
2022-08-27T01:58:28.581Z,1.80
2022-08-27T02:01:01.597Z,1.70
2022-08-27T02:03:29.671Z,1.70
2022-08-27T02:05:57.913Z,1.70
2022-08-27T02:08:25.520Z,1.60
2022-08-27T02:10:53.231Z,1.60
2022-08-27T02:13:20.801Z,2.00
2022-08-27T02:15:48.669Z,1.70
2022-08-27T02:18:17.395Z,1.50
2022-08-27T02:20:47.829Z,1.50
2022-08-27T02:23:17.005Z,1.60
2022-08-27T02:25:47.438Z,1.60
2022-08-27T02:28:15.356Z,1.40
2022-08-27T02:30:42.918Z,1.80
2022-08-27T02:33:10.466Z,1.60
2022-08-27T02:35:44.060Z,1.50
2022-08-27T02:38:13.194Z,1.60
2022-08-27T02:40:41.023Z,1.80
2022-08-27T02:43:09.490Z,1.60
2022-08-27T02:45:39.829Z,1.50
2022-08-27T02:48:08.087Z,1.70
2022-08-27T02:50:36.575Z,1.70
2022-08-27T02:53:06.502Z,1.70
2022-08-27T02:55:34.286Z,2.00
2022-08-27T02:58:05.172Z,1.20
2022-08-27T03:00:33.885Z,1.60
2022-08-27T03:03:02.398Z,1.70
2022-08-27T03:05:30.082Z,1.60
2022-08-27T03:07:59.610Z,1.40
2022-08-27T03:10:27.420Z,1.40
2022-08-27T03:12:54.984Z,1.60
2022-08-27T03:15:22.790Z,1.60
2022-08-27T03:18:09.771Z,2.40
2022-08-27T03:20:44.119Z,1.70
2022-08-27T03:23:14.849Z,1.70
2022-08-27T03:25:51.694Z,1.70
2022-08-27T03:28:22.439Z,1.40
2022-08-27T03:31:01.446Z,1.80
2022-08-27T03:33:33.171Z,1.50
2022-08-27T03:36:00.743Z,1.70
2022-08-27T03:38:28.277Z,1.70
2022-08-27T03:40:56.061Z,1.50
2022-08-27T03:43:23.937Z,1.70
2022-08-27T03:46:01.701Z,1.80
2022-08-27T03:48:32.211Z,1.80
2022-08-27T03:51:08.120Z,2.40
2022-08-27T03:53:38.941Z,1.90
2022-08-27T03:56:08.435Z,2.10
2022-08-27T03:58:37.410Z,1.80
2022-08-27T04:01:08.130Z,1.70
2022-08-27T04:03:36.940Z,2.00
2022-08-27T04:06:04.639Z,2.40
2022-08-27T04:08:32.763Z,1.50
2022-08-27T04:11:00.381Z,2.00
2022-08-27T04:13:28.079Z,2.40
2022-08-27T04:15:56.461Z,2.00
2022-08-27T04:18:24.066Z,2.00
2022-08-27T04:20:55.699Z,2.00
2022-08-27T04:23:23.229Z,1.60
2022-08-27T04:25:50.792Z,1.90
2022-08-27T04:28:18.389Z,1.70
2022-08-27T04:30:46.999Z,1.70
2022-08-27T04:33:14.842Z,1.90
2022-08-27T04:35:43.253Z,1.90
2022-08-27T04:38:10.929Z,2.00
2022-08-27T04:40:57.294Z,1.80
2022-08-27T04:43:28.347Z,2.50
2022-08-27T04:45:55.943Z,1.90
2022-08-27T04:48:23.511Z,1.90
2022-08-27T04:50:52.999Z,1.90
2022-08-27T04:53:20.500Z,2.30
2022-08-27T04:55:53.764Z,2.10
2022-08-27T04:58:22.862Z,2.00
2022-08-27T05:00:54.714Z,2.40
2022-08-27T05:03:24.915Z,2.50
2022-08-27T05:05:54.358Z,2.70
2022-08-27T05:08:21.875Z,2.40
2022-08-27T05:10:51.328Z,2.60
2022-08-27T05:13:24.558Z,2.70
2022-08-27T05:16:04.838Z,2.70
2022-08-27T05:18:37.963Z,2.50
2022-08-27T05:21:39.823Z,2.40
2022-08-27T05:24:10.102Z,2.30
2022-08-27T05:26:38.176Z,2.30
2022-08-27T05:29:06.745Z,2.60
2022-08-27T05:31:35.415Z,2.50
2022-08-27T05:34:03.791Z,1.90
2022-08-27T05:36:38.602Z,2.30
2022-08-27T05:39:17.203Z,2.30
2022-08-27T05:41:44.913Z,2.50
2022-08-27T05:44:40.105Z,2.40
2022-08-27T05:47:00.077Z,2.10
2022-08-27T05:49:27.602Z,2.30
2022-08-27T05:51:55.560Z,2.70
2022-08-27T05:54:23.784Z,2.40
2022-08-27T05:56:51.395Z,2.40
2022-08-27T05:59:39.144Z,2.30
2022-08-27T06:02:07.134Z,2.20
2022-08-27T06:04:35.201Z,2.30
2022-08-27T06:07:03.098Z,3.00
2022-08-27T06:09:30.899Z,2.70
2022-08-27T06:12:00.330Z,2.80
2022-08-27T06:14:28.876Z,2.50
2022-08-27T06:16:56.428Z,2.30
2022-08-27T06:19:24.513Z,2.30
2022-08-27T06:22:00.727Z,2.60
2022-08-27T06:24:39.925Z,2.30
2022-08-27T06:27:15.562Z,2.60
2022-08-27T06:29:44.109Z,2.80
2022-08-27T06:32:13.619Z,2.70
2022-08-27T06:34:41.423Z,2.70
2022-08-27T06:37:09.497Z,2.60
2022-08-27T06:39:39.855Z,3.00
2022-08-27T06:47:07.163Z,2.70
2022-08-27T06:49:34.762Z,3.80
2022-08-27T06:52:02.473Z,2.40
2022-08-27T06:54:30.081Z,2.50
2022-08-27T06:57:00.187Z,2.80
2022-08-27T06:59:28.011Z,2.50
2022-08-27T07:01:55.630Z,3.00
2022-08-27T07:04:30.779Z,2.60
2022-08-27T07:07:04.602Z,3.00
2022-08-27T07:09:34.042Z,3.30
2022-08-27T07:12:02.314Z,3.20
2022-08-27T07:14:35.663Z,3.10
2022-08-27T07:17:10.898Z,2.70
2022-08-27T07:19:41.256Z,2.90
2022-08-27T07:22:09.440Z,3.00
2022-08-27T07:24:38.240Z,2.90
2022-08-27T07:27:07.130Z,3.00
2022-08-27T07:29:34.876Z,2.90
2022-08-27T07:32:02.736Z,2.90
2022-08-27T07:34:30.226Z,3.80
2022-08-27T07:36:57.813Z,2.70
2022-08-27T07:39:25.374Z,3.80
2022-08-27T07:42:15.909Z,2.70
2022-08-27T07:44:43.671Z,2.90
2022-08-27T07:47:11.183Z,2.60
2022-08-27T07:49:38.773Z,3.20
2022-08-27T07:52:06.640Z,2.80
2022-08-27T07:54:34.513Z,2.80
2022-08-27T07:57:02.061Z,2.70
2022-08-27T07:59:29.638Z,2.40
2022-08-27T08:01:58.194Z,2.60
2022-08-27T08:04:26.840Z,2.60
2022-08-27T08:06:56.033Z,2.50
2022-08-27T08:09:25.162Z,2.70
2022-08-27T08:11:54.129Z,2.40
2022-08-27T08:14:21.984Z,2.30
2022-08-27T08:16:50.171Z,2.80
2022-08-27T08:19:18.215Z,2.60
2022-08-27T08:21:45.947Z,2.60
2022-08-27T08:24:13.456Z,2.50
2022-08-27T08:26:42.252Z,3.50
2022-08-27T08:29:13.325Z,2.80
2022-08-27T08:31:49.836Z,2.40
2022-08-27T08:34:19.952Z,2.30
2022-08-27T08:36:54.041Z,2.80
2022-08-27T08:39:23.469Z,2.80
2022-08-27T08:41:55.770Z,2.30
2022-08-27T08:44:32.754Z,2.60
2022-08-27T08:47:08.402Z,2.40
2022-08-27T08:49:48.261Z,2.40
2022-08-27T08:52:48.973Z,2.50
2022-08-27T08:55:43.208Z,2.00
2022-08-27T08:58:27.355Z,1.80
2022-08-27T09:01:01.663Z,1.90
2022-08-27T09:03:32.241Z,2.10
2022-08-27T09:06:09.149Z,1.90
2022-08-27T09:08:42.050Z,2.10
2022-08-27T09:11:35.257Z,1.90
2022-08-27T09:14:26.500Z,2.00
2022-08-27T09:16:56.451Z,2.10
2022-08-27T09:19:25.107Z,2.20
2022-08-27T09:22:21.037Z,1.80
2022-08-27T09:25:25.576Z,2.00
2022-08-27T09:27:57.387Z,2.30
2022-08-27T09:30:31.039Z,2.30
2022-08-27T09:33:04.356Z,2.00
2022-08-27T09:35:44.898Z,2.10
2022-08-27T09:38:29.726Z,2.60
2022-08-27T09:41:02.065Z,2.40
2022-08-27T09:43:32.171Z,2.50
2022-08-27T09:46:05.916Z,2.40
2022-08-27T09:48:37.560Z,2.60
2022-08-27T09:51:14.928Z,1.80
2022-08-27T09:53:56.032Z,2.20
2022-08-27T09:56:39.949Z,2.50
2022-08-27T09:59:09.580Z,2.30
2022-08-27T10:02:06.604Z,2.20
2022-08-27T10:04:53.134Z,2.50
2022-08-27T10:08:00.006Z,2.40
2022-08-27T10:11:01.054Z,2.00
2022-08-27T10:13:54.718Z,2.50
2022-08-27T10:17:05.450Z,2.10
2022-08-27T10:19:53.421Z,2.00
2022-08-27T10:22:45.474Z,2.20
2022-08-27T10:25:31.530Z,2.50
2022-08-27T10:28:26.645Z,2.30
2022-08-27T10:31:59.582Z,2.10
2022-08-27T10:34:43.545Z,2.00
2022-08-27T10:37:45.273Z,2.30
2022-08-27T10:40:37.317Z,2.50
2022-08-27T10:44:05.714Z,2.50
2022-08-27T10:47:02.015Z,2.30
2022-08-27T10:50:10.121Z,2.30
2022-08-27T10:52:42.258Z,2.30
2022-08-27T10:55:30.797Z,1.80
2022-08-27T10:58:19.777Z,2.00
2022-08-27T11:01:21.202Z,2.20
2022-08-27T11:04:11.296Z,2.20
2022-08-27T11:06:53.032Z,2.20
2022-08-27T11:09:37.733Z,2.00
2022-08-27T11:12:15.344Z,2.20
2022-08-27T11:14:59.117Z,1.80
2022-08-27T11:17:36.888Z,2.10
2022-08-27T11:20:28.822Z,2.00
2022-08-27T11:23:07.439Z,1.90
2022-08-27T11:26:02.279Z,1.90
2022-08-27T11:28:41.876Z,1.90
2022-08-27T11:31:21.102Z,1.60
2022-08-27T11:34:02.503Z,2.30
2022-08-27T11:37:11.568Z,2.30
2022-08-27T11:40:20.437Z,2.10
2022-08-27T11:42:56.878Z,2.40
2022-08-27T11:45:38.669Z,2.20
2022-08-27T11:48:33.518Z,2.10
2022-08-27T11:51:33.750Z,1.70
2022-08-27T11:56:43.094Z,2.00
2022-08-27T11:59:28.570Z,2.00
2022-08-27T12:02:27.958Z,1.80
2022-08-27T12:05:35.206Z,1.70
2022-08-27T12:08:22.948Z,1.90
2022-08-27T12:11:24.567Z,2.00
2022-08-27T12:14:04.557Z,2.20
2022-08-27T12:16:48.704Z,1.90
2022-08-27T12:19:53.622Z,2.30
2022-08-27T12:23:07.653Z,2.20
2022-08-27T12:25:35.456Z,2.10
2022-08-27T12:28:09.500Z,2.00
2022-08-27T12:30:49.550Z,2.10
2022-08-27T12:33:46.591Z,1.70
2022-08-27T12:36:28.257Z,1.90
2022-08-27T12:38:59.033Z,2.00
2022-08-27T12:41:44.674Z,2.00
2022-08-27T12:44:25.775Z,2.00
2022-08-27T12:47:08.122Z,1.90
2022-08-27T12:49:44.576Z,2.00
2022-08-27T12:52:20.313Z,1.60
2022-08-27T12:55:05.959Z,2.10
2022-08-27T12:58:15.329Z,2.10
2022-08-27T13:01:28.503Z,2.00
2022-08-27T13:03:57.269Z,1.80
2022-08-27T13:06:33.904Z,2.10
2022-08-27T13:09:06.375Z,1.80
2022-08-27T13:11:49.770Z,1.90
2022-08-27T13:14:21.822Z,1.60
2022-08-27T13:16:55.406Z,1.90
2022-08-27T13:19:33.675Z,1.90
2022-08-27T13:22:03.774Z,1.80
2022-08-27T13:24:36.356Z,2.00
2022-08-27T13:27:06.463Z,1.70
2022-08-27T13:29:34.857Z,1.70
2022-08-27T13:32:03.196Z,1.60
2022-08-27T13:34:36.940Z,1.70
2022-08-27T13:37:21.239Z,1.70
2022-08-27T13:39:57.188Z,1.60
2022-08-27T13:42:26.646Z,2.00
2022-08-27T13:45:01.650Z,1.60
2022-08-27T13:47:30.914Z,2.10
2022-08-27T13:50:07.722Z,1.60
2022-08-27T13:53:01.441Z,1.60
2022-08-27T13:55:30.859Z,1.60
2022-08-27T13:58:14.935Z,1.60
2022-08-27T14:00:43.317Z,1.60
2022-08-27T14:03:32.738Z,1.70
2022-08-27T14:06:01.700Z,1.60
2022-08-27T14:08:36.016Z,1.50
2022-08-27T14:11:09.025Z,1.70
2022-08-27T14:13:44.370Z,1.70
2022-08-27T14:16:26.878Z,1.30
2022-08-27T14:19:08.117Z,1.40
2022-08-27T14:21:39.634Z,1.60
2022-08-27T14:24:08.053Z,1.70
2022-08-27T14:26:36.151Z,1.40
2022-08-27T14:29:04.241Z,1.50
2022-08-27T14:31:39.805Z,1.80
2022-08-27T14:34:08.516Z,1.70
2022-08-27T14:36:39.759Z,1.40
2022-08-27T14:39:08.752Z,1.50
2022-08-27T14:41:36.333Z,1.40
2022-08-27T14:44:05.001Z,1.60
2022-08-27T14:46:41.394Z,1.60
2022-08-27T14:49:22.473Z,1.40
2022-08-27T14:51:50.286Z,1.40
2022-08-27T14:54:17.996Z,1.60
2022-08-27T14:56:45.550Z,1.40
2022-08-27T14:59:13.092Z,1.50
2022-08-27T15:01:40.722Z,1.30
2022-08-27T15:04:08.491Z,1.60
2022-08-27T15:06:36.038Z,1.60
2022-08-27T15:09:04.104Z,1.40
2022-08-27T15:11:35.935Z,1.50
2022-08-27T15:14:09.709Z,1.50
2022-08-27T15:16:41.698Z,1.30
2022-08-27T15:19:13.498Z,1.40
2022-08-27T15:21:42.272Z,1.40
2022-08-27T15:24:27.858Z,1.60
2022-08-27T15:27:00.148Z,1.40
2022-08-27T15:29:27.853Z,1.70
2022-08-27T15:31:55.554Z,1.20
2022-08-27T15:34:23.170Z,1.40
2022-08-27T15:36:50.747Z,1.20
2022-08-27T15:39:18.357Z,1.50
2022-08-27T15:42:03.373Z,1.40
2022-08-27T15:44:33.941Z,1.70
2022-08-27T15:47:01.580Z,1.20
2022-08-27T15:49:29.108Z,1.30
2022-08-27T15:51:59.523Z,1.60
2022-08-27T15:56:55.106Z,1.70
2022-08-27T15:59:22.680Z,1.30
2022-08-27T16:01:50.245Z,1.40
2022-08-27T16:04:18.597Z,1.60
2022-08-27T16:06:46.034Z,1.50
2022-08-27T16:09:14.154Z,1.30
2022-08-27T16:11:42.024Z,1.30
2022-08-27T16:14:10.771Z,1.40
2022-08-27T16:16:40.272Z,1.30
2022-08-27T16:19:07.918Z,1.40
2022-08-27T16:21:36.452Z,1.70
2022-08-27T16:24:06.874Z,1.60
2022-08-27T16:26:34.553Z,1.40
2022-08-27T16:29:02.632Z,1.40
2022-08-27T16:31:32.494Z,1.30
2022-08-27T16:34:00.339Z,1.20
2022-08-27T16:36:29.624Z,1.60
2022-08-27T16:38:57.399Z,1.40
2022-08-27T16:41:24.833Z,1.30
2022-08-27T16:43:52.278Z,1.80
2022-08-27T16:46:19.841Z,1.40
2022-08-27T16:49:06.067Z,1.30
2022-08-27T16:51:35.791Z,1.70
2022-08-27T16:54:06.089Z,1.30
2022-08-27T16:56:37.051Z,1.60
2022-08-27T16:59:06.730Z,1.30
2022-08-27T17:01:35.253Z,1.60
2022-08-27T17:04:18.163Z,1.50
2022-08-27T17:06:51.940Z,1.50
2022-08-27T17:09:19.394Z,1.20
2022-08-27T17:11:53.461Z,1.30
2022-08-27T17:14:20.991Z,1.70
2022-08-27T17:16:50.066Z,1.70
2022-08-27T17:19:18.883Z,1.50
2022-08-27T17:21:46.328Z,1.30
2022-08-27T17:24:13.905Z,1.50
2022-08-27T17:26:41.470Z,1.70
2022-08-27T17:29:08.948Z,1.50
2022-08-27T17:31:38.825Z,1.40
2022-08-27T17:34:07.570Z,2.00
2022-08-27T17:36:35.121Z,1.50
2022-08-27T17:39:03.142Z,1.70
2022-08-27T17:41:40.792Z,1.60
2022-08-27T17:44:24.593Z,1.60
2022-08-27T17:46:54.203Z,1.70
2022-08-27T17:49:22.276Z,1.60
2022-08-27T17:51:56.208Z,1.40
2022-08-27T17:54:39.746Z,1.40
2022-08-27T17:57:17.615Z,4.00
2022-08-27T17:59:45.786Z,1.60
2022-08-27T18:02:20.691Z,1.50
2022-08-27T18:04:48.404Z,1.90
2022-08-27T18:07:16.862Z,1.50
2022-08-27T18:09:44.395Z,2.40
2022-08-27T18:12:19.024Z,3.40
2022-08-27T18:15:20.414Z,2.50
2022-08-27T18:17:53.161Z,3.50
2022-08-27T18:20:24.076Z,1.90
2022-08-27T18:22:52.984Z,1.70
2022-08-27T18:25:25.010Z,1.90
2022-08-27T18:27:58.231Z,2.00
2022-08-27T18:30:26.524Z,2.10
2022-08-27T18:32:54.435Z,1.90
2022-08-27T18:35:28.694Z,1.80
2022-08-27T18:37:56.615Z,1.80
2022-08-27T18:40:29.903Z,1.70
2022-08-27T18:42:58.061Z,2.00
2022-08-27T18:45:28.518Z,1.90
2022-08-27T18:47:59.240Z,2.20
2022-08-27T18:50:27.533Z,2.20
2022-08-27T18:52:57.386Z,2.10
2022-08-27T18:55:28.215Z,2.20
2022-08-27T19:00:23.194Z,1.70
2022-08-27T19:02:52.801Z,2.30
2022-08-27T19:05:25.400Z,2.30
2022-08-27T19:07:56.584Z,2.30
2022-08-27T19:10:25.199Z,2.10
2022-08-27T19:12:54.369Z,2.40
2022-08-27T19:15:21.818Z,2.20
2022-08-27T19:17:56.274Z,2.10
2022-08-27T19:20:24.174Z,2.90
2022-08-27T19:22:51.664Z,2.40
2022-08-27T19:25:19.322Z,2.50
2022-08-27T19:27:47.441Z,2.50
2022-08-27T19:30:16.960Z,3.00
2022-08-27T19:32:45.305Z,2.70
2022-08-27T19:35:13.218Z,2.60
2022-08-27T19:37:52.828Z,2.80
2022-08-27T19:40:22.541Z,3.00
2022-08-27T19:42:50.916Z,2.70
2022-08-27T19:45:23.175Z,2.70
2022-08-27T19:47:53.140Z,3.00
2022-08-27T19:50:23.291Z,2.60
2022-08-27T19:52:51.878Z,2.40
2022-08-27T19:55:19.982Z,2.40
2022-08-27T19:57:48.292Z,2.60
2022-08-27T20:00:19.803Z,6.10
2022-08-27T20:02:47.407Z,5.80
2022-08-27T20:05:20.918Z,3.60
2022-08-27T20:07:51.908Z,3.30
2022-08-27T20:12:50.441Z,8.50
2022-08-27T20:15:23.509Z,3.10
2022-08-27T20:17:53.138Z,2.80
2022-08-27T20:20:23.796Z,2.70
2022-08-27T20:22:52.208Z,3.10
2022-08-27T20:25:19.979Z,3.10
2022-08-27T20:27:48.310Z,3.10
2022-08-27T20:30:18.367Z,3.20
2022-08-27T20:32:47.282Z,3.80
2022-08-27T20:35:16.485Z,3.30
2022-08-27T20:37:44.068Z,3.40
2022-08-27T20:40:18.360Z,3.00
2022-08-27T20:42:45.921Z,3.30
2022-08-27T20:45:15.460Z,3.20
2022-08-27T20:47:46.888Z,3.20
2022-08-27T20:50:16.002Z,3.20
2022-08-27T20:52:45.049Z,3.30
2022-08-27T20:55:17.430Z,2.90
2022-08-27T20:58:06.680Z,2.90
2022-08-27T21:00:37.862Z,2.80
2022-08-27T21:05:35.112Z,3.00
2022-08-27T21:08:05.766Z,3.10
2022-08-27T21:10:34.783Z,3.00
2022-08-27T21:13:05.181Z,2.60
2022-08-27T21:15:33.683Z,3.00
2022-08-27T21:18:01.158Z,2.80
2022-08-27T21:20:28.640Z,2.80
2022-08-27T21:22:57.814Z,2.80
2022-08-27T21:25:27.017Z,3.30
2022-08-27T21:27:57.095Z,3.50
2022-08-27T21:30:26.349Z,3.30
2022-08-27T21:32:55.938Z,3.40
2022-08-27T21:35:29.246Z,3.70
2022-08-27T21:37:59.604Z,3.60
2022-08-27T21:40:29.733Z,3.70
2022-08-27T21:42:58.306Z,4.00
2022-08-27T21:45:26.082Z,3.60
2022-08-27T21:47:54.274Z,3.80
2022-08-27T21:50:23.734Z,3.40
2022-08-27T21:52:51.814Z,3.40
2022-08-27T21:55:19.578Z,3.20
2022-08-27T21:57:47.785Z,2.70
2022-08-27T22:00:30.570Z,3.10
2022-08-27T22:02:58.915Z,2.80
2022-08-27T22:05:26.353Z,2.40
2022-08-27T22:07:53.824Z,2.60
2022-08-27T22:10:21.307Z,2.70
2022-08-27T22:12:48.785Z,2.10
2022-08-27T22:15:16.616Z,2.50
2022-08-27T22:17:46.243Z,2.40
2022-08-27T22:20:17.039Z,2.50
2022-08-27T22:22:44.987Z,2.70
2022-08-27T22:25:13.296Z,2.80
2022-08-27T22:27:40.862Z,2.50
2022-08-27T22:30:11.306Z,2.80
2022-08-27T22:32:40.292Z,2.60
2022-08-27T22:35:09.444Z,2.70
2022-08-27T22:37:37.126Z,2.80
2022-08-27T22:40:08.795Z,2.50
2022-08-27T22:42:48.189Z,3.00
2022-08-27T22:45:16.775Z,2.60
2022-08-27T22:47:44.332Z,2.50
2022-08-27T22:50:12.886Z,2.30
2022-08-27T22:52:44.049Z,2.20
2022-08-27T22:55:16.209Z,2.20
2022-08-27T22:57:43.621Z,2.40
2022-08-27T23:00:17.420Z,2.10
2022-08-27T23:02:45.818Z,2.50
2022-08-27T23:05:15.323Z,2.70
2022-08-27T23:07:43.876Z,2.70
2022-08-27T23:10:14.829Z,2.90
2022-08-27T23:12:45.100Z,2.70
2022-08-27T23:15:18.400Z,3.00
2022-08-27T23:17:45.837Z,3.20
2022-08-27T23:20:14.496Z,3.50
2022-08-27T23:22:42.388Z,3.40
2022-08-27T23:25:30.220Z,3.10
2022-08-27T23:27:59.760Z,3.50
2022-08-27T23:30:28.164Z,3.30
2022-08-27T23:32:56.109Z,3.10
2022-08-27T23:35:26.279Z,3.00
2022-08-27T23:37:54.074Z,3.50
2022-08-27T23:40:22.933Z,2.80
2022-08-27T23:42:50.766Z,2.70
2022-08-27T23:45:22.885Z,3.40
2022-08-27T23:47:50.404Z,2.60
2022-08-27T23:50:18.266Z,2.80
2022-08-27T23:52:45.758Z,2.40
2022-08-27T23:55:13.493Z,2.80
2022-08-27T23:57:41.307Z,2.70
